createdAt,value
2023-05-05T00:00:17.615Z,16.17
2023-05-05T00:02:45.840Z,16.25
2023-05-05T00:05:14.218Z,16.25
2023-05-05T00:07:42.512Z,16.26
2023-05-05T00:10:12.723Z,16.41
2023-05-05T00:12:40.813Z,16.38
2023-05-05T00:15:10.012Z,16.39
2023-05-05T00:17:38.107Z,16.38
2023-05-05T00:20:07.915Z,16.42
2023-05-05T00:22:36.450Z,16.42
2023-05-05T00:25:04.948Z,16.41
2023-05-05T00:27:34.784Z,16.37
2023-05-05T00:30:02.820Z,16.33
2023-05-05T00:32:31.228Z,16.34
2023-05-05T00:34:59.305Z,16.33
2023-05-05T00:37:27.582Z,16.32
2023-05-05T00:39:55.864Z,16.31
2023-05-05T00:42:23.940Z,16.29
2023-05-05T00:44:53.375Z,16.28
2023-05-05T00:47:21.825Z,16.28
2023-05-05T00:49:49.890Z,16.21
2023-05-05T00:52:18.045Z,16.29
2023-05-05T00:54:46.075Z,16.27
2023-05-05T00:57:14.191Z,16.20
2023-05-05T00:59:43.316Z,16.21
2023-05-05T01:02:13.092Z,16.21
2023-05-05T01:04:41.218Z,16.14
2023-05-05T01:07:20.247Z,16.03
2023-05-05T01:10:10.945Z,15.99
2023-05-05T01:12:52.962Z,16.01
2023-05-05T01:15:31.873Z,15.99
2023-05-05T01:18:10.886Z,15.99
2023-05-05T01:20:46.453Z,16.00
2023-05-05T01:23:25.559Z,15.97
2023-05-05T01:26:25.831Z,15.94
2023-05-05T01:29:13.933Z,15.95
2023-05-05T01:31:51.856Z,15.81
2023-05-05T01:34:26.084Z,15.75
2023-05-05T01:37:05.941Z,15.72
2023-05-05T01:39:36.052Z,15.74
2023-05-05T01:42:09.874Z,15.69
2023-05-05T01:44:39.846Z,15.55
2023-05-05T01:47:11.344Z,15.52
2023-05-05T01:49:42.095Z,15.57
2023-05-05T01:52:11.631Z,15.59
2023-05-05T01:54:41.386Z,15.59
2023-05-05T01:57:11.374Z,15.54
2023-05-05T01:59:40.948Z,15.55
2023-05-05T02:02:12.432Z,15.52
2023-05-05T02:04:44.830Z,15.54
2023-05-05T02:07:15.331Z,15.54
2023-05-05T02:09:45.192Z,15.48
2023-05-05T02:12:13.744Z,15.47
2023-05-05T02:14:45.514Z,15.45
2023-05-05T02:17:18.325Z,15.47
2023-05-05T02:19:49.018Z,15.42
2023-05-05T02:22:17.406Z,15.39
2023-05-05T02:24:46.781Z,15.35
2023-05-05T02:27:18.994Z,15.35
2023-05-05T02:29:50.420Z,15.36
2023-05-05T02:32:25.052Z,15.38
2023-05-05T02:34:55.439Z,15.37
2023-05-05T02:37:28.056Z,15.36
2023-05-05T02:40:02.628Z,15.29
2023-05-05T02:42:35.542Z,15.22
2023-05-05T02:45:09.764Z,15.18
2023-05-05T02:47:40.250Z,15.05
2023-05-05T02:50:10.199Z,14.95
2023-05-05T02:52:39.214Z,14.92
2023-05-05T02:55:08.834Z,14.80
2023-05-05T02:57:42.286Z,14.77
2023-05-05T03:00:16.992Z,14.75
2023-05-05T03:02:56.852Z,14.78
2023-05-05T03:05:29.676Z,14.77
2023-05-05T03:08:04.941Z,14.78
2023-05-05T03:10:41.278Z,14.77
2023-05-05T03:13:13.550Z,14.76
2023-05-05T03:15:46.428Z,14.74
2023-05-05T03:18:17.760Z,14.73
2023-05-05T03:20:46.166Z,14.72
2023-05-05T03:23:14.719Z,14.72
2023-05-05T03:25:43.596Z,14.63
2023-05-05T03:28:11.594Z,14.62
2023-05-05T03:30:39.990Z,14.58
2023-05-05T03:33:08.331Z,14.56
2023-05-05T03:35:37.834Z,14.59
2023-05-05T03:38:05.816Z,14.54
2023-05-05T03:40:43.601Z,14.51
2023-05-05T03:43:12.281Z,14.48
2023-05-05T03:45:40.367Z,14.45
2023-05-05T03:48:09.755Z,14.42
2023-05-05T03:50:39.383Z,14.44
2023-05-05T03:53:07.500Z,14.44
2023-05-05T03:55:35.659Z,14.45
2023-05-05T03:58:03.695Z,14.46
2023-05-05T04:00:31.882Z,14.48
2023-05-05T04:03:00.176Z,14.53
2023-05-05T04:05:28.354Z,14.55
2023-05-05T04:07:58.970Z,14.59
2023-05-05T04:10:27.238Z,14.63
2023-05-05T04:12:55.594Z,14.59
2023-05-05T04:15:23.953Z,14.64
2023-05-05T04:17:52.215Z,14.67
2023-05-05T04:20:20.812Z,14.68
2023-05-05T04:22:50.680Z,14.70
2023-05-05T04:25:21.593Z,14.69
2023-05-05T04:27:49.853Z,14.65
2023-05-05T04:30:18.253Z,14.58
2023-05-05T04:32:46.467Z,14.59
2023-05-05T04:35:14.792Z,14.56
2023-05-05T04:37:43.082Z,14.60
2023-05-05T04:40:11.856Z,14.58
2023-05-05T04:42:41.684Z,14.67
2023-05-05T04:45:10.579Z,14.70
2023-05-05T04:47:39.261Z,14.76
2023-05-05T04:50:08.258Z,14.81
2023-05-05T04:52:36.786Z,14.77
2023-05-05T04:55:07.757Z,14.77
2023-05-05T04:57:35.982Z,14.76
2023-05-05T05:00:06.741Z,14.76
2023-05-05T05:02:35.067Z,14.76
2023-05-05T05:05:03.584Z,14.74
2023-05-05T05:07:31.630Z,14.78
2023-05-05T05:10:00.881Z,14.82
2023-05-05T05:12:29.291Z,14.87
2023-05-05T05:17:27.438Z,14.87
2023-05-05T05:19:57.158Z,14.90
2023-05-05T05:22:25.689Z,14.92
2023-05-05T05:24:53.836Z,14.94
2023-05-05T05:27:22.065Z,14.95
2023-05-05T05:29:50.243Z,15.00
2023-05-05T05:32:18.173Z,15.08
2023-05-05T05:34:48.122Z,15.11
2023-05-05T05:37:16.176Z,15.20
2023-05-05T05:39:44.184Z,15.31
2023-05-05T05:42:12.218Z,15.41
2023-05-05T05:44:40.108Z,15.53
2023-05-05T05:47:08.308Z,15.68
2023-05-05T05:49:36.373Z,15.88
2023-05-05T05:52:06.208Z,16.10
2023-05-05T05:54:35.859Z,16.33
2023-05-05T05:57:04.271Z,16.54
2023-05-05T05:59:32.293Z,16.75
2023-05-05T06:02:00.464Z,16.97
2023-05-05T06:04:28.520Z,17.15
2023-05-05T06:06:57.390Z,17.30
2023-05-05T06:09:27.562Z,17.44
2023-05-05T06:11:55.553Z,17.54
2023-05-05T06:14:23.648Z,17.64
2023-05-05T06:16:53.302Z,17.75
2023-05-05T06:19:21.535Z,17.86
2023-05-05T06:21:49.442Z,17.95
2023-05-05T06:24:17.731Z,18.11
2023-05-05T06:26:47.198Z,18.33
2023-05-05T06:29:15.398Z,18.53
2023-05-05T06:31:43.513Z,18.76
2023-05-05T06:34:11.455Z,18.95
2023-05-05T06:36:39.729Z,19.11
2023-05-05T06:39:08.172Z,19.12
2023-05-05T06:41:36.453Z,19.17
2023-05-05T06:44:06.761Z,19.18
2023-05-05T06:46:34.672Z,19.09
2023-05-05T06:49:02.566Z,19.02
2023-05-05T06:51:31.377Z,18.98
2023-05-05T06:53:59.743Z,18.95
2023-05-05T06:56:27.946Z,18.90
2023-05-05T06:58:56.205Z,18.90
2023-05-05T07:01:25.711Z,19.01
2023-05-05T07:03:53.993Z,19.13
2023-05-05T07:06:22.151Z,19.53
2023-05-05T07:08:50.225Z,19.89
2023-05-05T07:11:20.765Z,20.13
2023-05-05T07:13:49.331Z,20.19
2023-05-05T07:16:17.606Z,20.26
2023-05-05T07:18:47.221Z,20.29
2023-05-05T07:21:15.488Z,20.31
2023-05-05T07:23:46.685Z,20.22
2023-05-05T07:26:14.961Z,20.03
2023-05-05T07:28:43.242Z,19.90
2023-05-05T07:31:11.261Z,19.82
2023-05-05T07:33:39.267Z,19.74
2023-05-05T07:36:08.826Z,19.79
2023-05-05T07:38:37.090Z,19.83
2023-05-05T07:41:05.247Z,19.82
2023-05-05T07:43:33.643Z,19.92
2023-05-05T07:46:01.588Z,19.96
2023-05-05T07:48:30.307Z,19.98
2023-05-05T07:50:58.216Z,19.93
2023-05-05T07:53:28.073Z,19.96
2023-05-05T07:55:56.065Z,19.96
2023-05-05T07:58:23.977Z,19.93
2023-05-05T08:00:51.922Z,19.95
2023-05-05T08:03:24.503Z,19.87
2023-05-05T08:05:55.811Z,19.86
2023-05-05T08:08:25.075Z,19.80
2023-05-05T08:10:54.850Z,19.84
2023-05-05T08:13:22.915Z,19.79
2023-05-05T08:15:53.525Z,19.69
2023-05-05T08:18:21.706Z,19.65
2023-05-05T08:20:50.439Z,19.62
2023-05-05T08:23:18.998Z,19.57
2023-05-05T08:25:47.326Z,19.52
2023-05-05T08:28:16.691Z,19.51
2023-05-05T08:30:44.799Z,19.53
2023-05-05T08:33:12.903Z,19.47
2023-05-05T08:35:40.987Z,19.48
2023-05-05T08:38:09.129Z,19.42
2023-05-05T08:40:40.756Z,19.42
2023-05-05T08:43:08.843Z,19.32
2023-05-05T08:45:41.757Z,19.29
2023-05-05T08:48:10.754Z,19.29
2023-05-05T08:50:41.538Z,19.30
2023-05-05T08:53:30.194Z,19.24
2023-05-05T08:56:02.013Z,19.30
2023-05-05T08:58:31.984Z,19.20
2023-05-05T09:01:01.996Z,19.13
2023-05-05T09:03:31.330Z,19.03
2023-05-05T09:05:59.474Z,19.00
2023-05-05T09:08:28.732Z,18.94
2023-05-05T09:10:57.263Z,18.92
2023-05-05T09:13:25.245Z,18.92
2023-05-05T09:15:53.383Z,18.96
2023-05-05T09:18:23.387Z,19.01
2023-05-05T09:20:51.354Z,19.03
2023-05-05T09:23:20.949Z,19.09
2023-05-05T09:26:03.869Z,19.14
2023-05-05T09:28:32.282Z,19.22
2023-05-05T09:31:16.050Z,19.28
2023-05-05T09:33:46.125Z,19.30
2023-05-05T09:36:14.162Z,19.38
2023-05-05T09:38:42.246Z,19.46
2023-05-05T09:41:10.273Z,19.53
2023-05-05T09:43:51.861Z,19.62
2023-05-05T09:46:20.063Z,19.70
2023-05-05T09:48:49.793Z,19.71
2023-05-05T09:51:17.778Z,19.76
2023-05-05T09:53:46.069Z,19.84
2023-05-05T09:56:14.106Z,19.93
2023-05-05T09:58:43.273Z,19.95
2023-05-05T10:01:23.298Z,19.98
2023-05-05T10:03:53.558Z,20.06
2023-05-05T10:06:22.109Z,20.18
2023-05-05T10:09:02.336Z,20.31
2023-05-05T10:11:31.007Z,20.50
2023-05-05T10:13:59.661Z,20.72
2023-05-05T10:16:31.300Z,20.91
2023-05-05T10:19:04.268Z,21.06
2023-05-05T10:21:40.216Z,21.38
2023-05-05T10:24:16.278Z,21.79
2023-05-05T10:26:47.315Z,21.77
2023-05-05T10:29:24.283Z,21.90
2023-05-05T10:31:55.253Z,21.56
2023-05-05T10:34:29.708Z,21.52
2023-05-05T10:37:00.288Z,21.49
2023-05-05T10:39:29.531Z,21.47
2023-05-05T10:42:02.378Z,21.41
2023-05-05T10:44:32.668Z,21.38
2023-05-05T10:47:01.973Z,21.37
2023-05-05T10:49:42.956Z,21.33
2023-05-05T10:52:19.311Z,21.23
2023-05-05T10:54:53.664Z,21.30
2023-05-05T10:57:25.370Z,21.22
2023-05-05T10:59:53.270Z,21.08
2023-05-05T11:02:26.219Z,20.97
2023-05-05T11:05:15.349Z,20.94
2023-05-05T11:07:43.832Z,20.97
2023-05-05T11:10:13.645Z,20.98
2023-05-05T11:13:20.569Z,20.89
2023-05-05T11:15:49.661Z,20.80
2023-05-05T11:18:36.101Z,20.73
2023-05-05T11:21:17.081Z,20.73
2023-05-05T11:23:53.924Z,20.75
2023-05-05T11:26:57.507Z,20.67
2023-05-05T11:29:25.862Z,20.50
2023-05-05T11:32:12.492Z,20.38
2023-05-05T11:34:49.929Z,20.33
2023-05-05T11:37:23.778Z,20.25
2023-05-05T11:40:01.770Z,20.16
2023-05-05T11:42:30.457Z,20.04
2023-05-05T11:44:59.517Z,20.00
2023-05-05T11:47:32.551Z,19.94
2023-05-05T11:50:17.111Z,19.94
2023-05-05T11:52:47.011Z,19.95
2023-05-05T11:55:22.326Z,20.04
2023-05-05T11:57:50.880Z,20.11
2023-05-05T12:00:20.099Z,20.22
2023-05-05T12:02:48.437Z,20.23
2023-05-05T12:05:22.164Z,20.39
2023-05-05T12:07:58.535Z,20.49
2023-05-05T12:10:26.833Z,20.61
2023-05-05T12:12:55.629Z,20.71
2023-05-05T12:15:31.937Z,20.69
2023-05-05T12:18:02.366Z,20.82
2023-05-05T12:20:32.679Z,21.00
2023-05-05T12:23:04.138Z,21.20
2023-05-05T12:25:39.309Z,21.49
2023-05-05T12:28:08.365Z,21.60
2023-05-05T12:30:37.233Z,21.60
2023-05-05T12:33:09.571Z,21.66
2023-05-05T12:35:46.767Z,21.86
2023-05-05T12:38:17.176Z,21.85
2023-05-05T12:40:52.421Z,21.78
2023-05-05T12:43:31.627Z,21.87
2023-05-05T12:46:03.740Z,22.12
2023-05-05T12:48:32.596Z,22.12
2023-05-05T12:51:17.829Z,22.12
2023-05-05T12:53:48.197Z,22.05
2023-05-05T12:56:36.267Z,22.04
2023-05-05T12:59:07.210Z,21.91
2023-05-05T13:01:36.639Z,21.84
2023-05-05T13:04:14.650Z,21.77
2023-05-05T13:06:44.221Z,21.57
2023-05-05T13:09:26.113Z,21.46
2023-05-05T13:11:55.290Z,21.49
2023-05-05T13:16:51.488Z,21.77
2023-05-05T13:19:19.749Z,21.87
2023-05-05T13:21:47.762Z,21.76
2023-05-05T13:26:49.582Z,21.93
2023-05-05T13:29:19.947Z,21.98
2023-05-05T13:31:57.571Z,22.14
2023-05-05T13:34:25.965Z,22.21
2023-05-05T13:36:55.237Z,22.27
2023-05-05T13:39:23.743Z,22.20
2023-05-05T13:41:53.225Z,22.42
2023-05-05T13:44:24.251Z,22.49
2023-05-05T13:46:53.209Z,22.52
2023-05-05T13:49:21.503Z,22.45
2023-05-05T13:51:49.481Z,22.49
2023-05-05T13:54:17.701Z,22.51
2023-05-05T13:56:46.183Z,22.42
2023-05-05T13:59:15.649Z,22.40
2023-05-05T14:01:43.771Z,22.46
2023-05-05T14:04:11.905Z,22.33
2023-05-05T14:06:40.053Z,22.26
2023-05-05T14:09:08.207Z,22.20
2023-05-05T14:11:36.478Z,22.13
2023-05-05T14:14:04.712Z,22.08
2023-05-05T14:16:34.395Z,22.07
2023-05-05T14:19:02.490Z,21.97
2023-05-05T14:21:31.769Z,21.90
2023-05-05T14:24:00.010Z,21.80
2023-05-05T14:26:28.169Z,21.78
2023-05-05T14:28:58.477Z,21.74
2023-05-05T14:31:26.628Z,21.74
2023-05-05T14:33:56.265Z,21.78
2023-05-05T14:36:24.610Z,21.75
2023-05-05T14:38:52.762Z,21.61
2023-05-05T14:41:21.343Z,21.57
2023-05-05T14:43:49.448Z,21.57
2023-05-05T14:46:17.444Z,21.51
2023-05-05T14:48:46.395Z,21.41
2023-05-05T14:51:16.909Z,21.41
2023-05-05T14:53:45.055Z,21.39
2023-05-05T14:56:13.736Z,21.33
2023-05-05T14:58:41.836Z,21.31
2023-05-05T15:01:09.890Z,21.25
2023-05-05T15:03:38.290Z,21.29
2023-05-05T15:06:07.036Z,21.33
2023-05-05T15:08:36.733Z,21.28
2023-05-05T15:11:04.972Z,21.26
2023-05-05T15:13:32.948Z,21.26
2023-05-05T15:16:01.642Z,21.16
2023-05-05T15:18:30.065Z,21.16
2023-05-05T15:20:58.199Z,21.12
2023-05-05T15:23:26.582Z,21.09
2023-05-05T15:25:55.992Z,21.06
2023-05-05T15:28:24.354Z,21.00
2023-05-05T15:30:52.464Z,20.96
2023-05-05T15:33:20.761Z,20.91
2023-05-05T15:35:48.809Z,20.87
2023-05-05T15:38:16.965Z,20.85
2023-05-05T15:40:48.903Z,20.81
2023-05-05T15:43:19.595Z,20.78
2023-05-05T15:45:47.652Z,20.74
2023-05-05T15:48:15.651Z,20.70
2023-05-05T15:50:43.746Z,20.65
2023-05-05T15:53:11.750Z,20.64
2023-05-05T15:55:40.319Z,20.62
2023-05-05T15:58:08.555Z,20.60
2023-05-05T16:00:40.680Z,20.58
2023-05-05T16:03:09.201Z,20.57
2023-05-05T16:05:37.279Z,20.51
2023-05-05T16:08:10.246Z,20.50
2023-05-05T16:10:38.806Z,20.42
2023-05-05T16:13:07.271Z,20.40
2023-05-05T16:15:36.198Z,20.33
2023-05-05T16:18:05.858Z,20.28
2023-05-05T16:20:34.153Z,20.23
2023-05-05T16:23:02.165Z,20.15
2023-05-05T16:25:30.368Z,20.09
2023-05-05T16:28:00.335Z,19.98
2023-05-05T16:30:29.362Z,19.91
2023-05-05T16:33:00.355Z,19.81
2023-05-05T16:35:30.359Z,19.66
2023-05-05T16:37:58.745Z,19.62
2023-05-05T16:40:27.088Z,19.55
2023-05-05T16:42:55.355Z,19.46
2023-05-05T16:45:24.444Z,19.37
2023-05-05T16:47:54.716Z,19.29
2023-05-05T16:50:23.022Z,19.17
2023-05-05T16:52:52.753Z,19.03
2023-05-05T16:55:21.079Z,18.93
2023-05-05T16:57:49.250Z,18.81
2023-05-05T17:00:17.583Z,18.65
2023-05-05T17:02:45.727Z,18.75
2023-05-05T17:05:13.813Z,18.63
2023-05-05T17:07:41.977Z,18.18
2023-05-05T17:10:12.523Z,17.62
2023-05-05T17:12:40.942Z,17.26
2023-05-05T17:15:14.226Z,17.04
2023-05-05T17:17:46.286Z,16.81
2023-05-05T17:24:30.119Z,16.41
2023-05-05T17:26:59.592Z,16.40
2023-05-05T17:29:27.606Z,16.43
2023-05-05T17:31:55.687Z,16.26
2023-05-05T17:34:23.693Z,16.20
2023-05-05T17:36:51.681Z,16.18
2023-05-05T17:39:19.813Z,16.26
2023-05-05T17:41:50.505Z,16.30
2023-05-05T17:44:24.876Z,16.20
2023-05-05T17:46:55.978Z,16.19
2023-05-05T17:49:25.552Z,16.17
2023-05-05T17:51:56.465Z,16.19
2023-05-05T17:54:38.982Z,16.24
2023-05-05T17:57:09.594Z,16.27
2023-05-05T18:00:04.255Z,16.31
2023-05-05T18:02:36.927Z,16.21
2023-05-05T18:05:06.063Z,16.17
2023-05-05T18:07:42.246Z,16.08
2023-05-05T18:10:11.963Z,16.00
2023-05-05T18:12:40.432Z,16.04
2023-05-05T18:15:13.861Z,15.98
2023-05-05T18:17:50.317Z,16.13
2023-05-05T18:20:24.460Z,16.07
2023-05-05T18:22:52.959Z,16.15
2023-05-05T18:25:39.700Z,16.16
2023-05-05T18:28:08.044Z,16.18
2023-05-05T18:30:51.973Z,16.25
2023-05-05T18:33:20.360Z,16.24
2023-05-05T18:36:07.916Z,16.27
2023-05-05T18:41:33.144Z,16.31
2023-05-05T18:44:24.596Z,16.34
2023-05-05T18:47:01.141Z,16.37
2023-05-05T18:50:12.971Z,16.40
2023-05-05T18:56:51.676Z,16.26
2023-05-05T19:01:06.810Z,16.26
2023-05-05T19:03:31.776Z,16.25
2023-05-05T19:06:55.947Z,16.23
2023-05-05T19:09:58.534Z,16.19
2023-05-05T19:12:35.838Z,16.17
2023-05-05T19:18:30.017Z,16.06
2023-05-05T19:21:44.239Z,16.12
2023-05-05T19:32:22.543Z,16.09
2023-05-05T19:36:14.253Z,16.14
2023-05-05T19:50:51.656Z,15.92
2023-05-05T19:53:39.349Z,15.83
2023-05-05T19:56:37.109Z,15.83
2023-05-05T19:59:55.960Z,15.85
2023-05-05T20:02:50.608Z,15.85
2023-05-05T20:06:48.922Z,15.88
2023-05-05T20:09:24.259Z,15.90
2023-05-05T20:12:05.016Z,15.93
2023-05-05T20:14:45.663Z,15.83
2023-05-05T20:17:48.919Z,15.75
2023-05-05T20:20:44.473Z,15.70
2023-05-05T20:23:47.016Z,15.68
2023-05-05T20:26:48.961Z,15.67
2023-05-05T20:30:15.049Z,15.67
2023-05-05T20:32:49.026Z,15.71
2023-05-05T20:35:26.509Z,15.74
2023-05-05T20:37:54.820Z,15.76
2023-05-05T20:40:35.651Z,15.77
2023-05-05T20:43:17.021Z,15.77
2023-05-05T20:45:49.499Z,15.79
2023-05-05T20:48:25.690Z,15.81
2023-05-05T20:50:59.013Z,15.82
2023-05-05T20:53:38.760Z,15.75
2023-05-05T20:56:08.987Z,15.67
2023-05-05T20:58:38.748Z,15.65
2023-05-05T21:01:11.963Z,15.66
2023-05-05T21:03:40.335Z,15.58
2023-05-05T21:06:39.088Z,15.64
2023-05-05T21:09:07.839Z,15.62
2023-05-05T21:11:36.100Z,15.61
2023-05-05T21:14:07.705Z,15.63
2023-05-05T21:16:51.258Z,15.59
2023-05-05T21:19:28.799Z,15.59
2023-05-05T21:22:07.114Z,15.54
2023-05-05T21:24:45.515Z,15.54
2023-05-05T21:27:22.456Z,15.54
2023-05-05T21:29:52.255Z,15.54
2023-05-05T21:32:20.667Z,15.52
2023-05-05T21:34:50.532Z,15.45
2023-05-05T21:37:20.056Z,15.41
2023-05-05T21:39:49.705Z,15.40
2023-05-05T21:42:18.509Z,15.32
2023-05-05T21:44:46.501Z,15.37
2023-05-05T21:47:14.798Z,15.34
2023-05-05T21:49:42.791Z,15.33
2023-05-05T21:52:12.935Z,15.36
2023-05-05T21:54:42.400Z,15.39
2023-05-05T21:57:10.517Z,15.35
2023-05-05T21:59:38.668Z,15.35
2023-05-05T22:02:06.684Z,15.35
2023-05-05T22:04:34.774Z,15.37
2023-05-05T22:07:04.629Z,15.40
2023-05-05T22:09:32.797Z,15.38
2023-05-05T22:12:02.701Z,15.39
2023-05-05T22:14:30.823Z,15.41
2023-05-05T22:16:58.849Z,15.43
2023-05-05T22:19:26.928Z,15.39
2023-05-05T22:21:54.945Z,15.36
2023-05-05T22:24:22.940Z,15.34
2023-05-05T22:26:51.111Z,15.32
2023-05-05T22:29:20.705Z,15.31
2023-05-05T22:31:49.007Z,15.34
2023-05-05T22:34:18.741Z,15.31
2023-05-05T22:36:47.914Z,15.29
2023-05-05T22:39:15.994Z,15.33
2023-05-05T22:41:44.049Z,15.34
2023-05-05T22:44:12.086Z,15.42
2023-05-05T22:46:42.151Z,15.34
2023-05-05T22:49:10.252Z,15.32
2023-05-05T22:51:39.249Z,15.28
2023-05-05T22:54:07.407Z,15.26
2023-05-05T22:56:35.803Z,15.22
2023-05-05T22:59:04.125Z,15.21
2023-05-05T23:01:32.882Z,15.21
2023-05-05T23:04:02.455Z,15.13
2023-05-05T23:06:30.578Z,15.14
2023-05-05T23:08:58.789Z,15.10
2023-05-05T23:11:27.303Z,15.15
2023-05-05T23:13:55.343Z,15.16
2023-05-05T23:16:23.339Z,15.21
2023-05-05T23:18:51.365Z,15.24
2023-05-05T23:21:21.253Z,15.28
2023-05-05T23:23:49.791Z,15.28
2023-05-05T23:26:17.904Z,15.30
2023-05-05T23:28:46.168Z,15.31
2023-05-05T23:31:14.385Z,15.32
2023-05-05T23:33:42.448Z,15.34
2023-05-05T23:36:10.599Z,15.33
2023-05-05T23:38:40.046Z,15.35
2023-05-05T23:41:08.157Z,15.34
2023-05-05T23:43:36.119Z,15.34
2023-05-05T23:46:04.591Z,15.33
2023-05-05T23:48:32.700Z,15.39
2023-05-05T23:51:00.658Z,15.34
2023-05-05T23:53:28.726Z,15.34
2023-05-05T23:55:58.573Z,15.33
2023-05-05T23:58:26.980Z,15.37
